sensor_id;sensor_type;location;lat;lon;timestamp;pressure;altitude;pressure_sealevel;temperature;humidity
58018;BME280;43810;50.860;19.226;2023-02-13T00:02:03;100563.16;;;4.03;82.82
58018;BME280;43810;50.860;19.226;2023-02-13T00:04:29;100569.59;;;3.96;83.04
58018;BME280;43810;50.860;19.226;2023-02-13T00:06:55;100559.47;;;3.87;83.48
58018;BME280;43810;50.860;19.226;2023-02-13T00:09:21;100553.47;;;3.75;83.77
58018;BME280;43810;50.860;19.226;2023-02-13T00:11:46;100547.06;;;3.71;83.98
58018;BME280;43810;50.860;19.226;2023-02-13T00:14:12;100552.00;;;3.68;83.92
58018;BME280;43810;50.860;19.226;2023-02-13T00:16:38;100543.19;;;3.74;84.63
58018;BME280;43810;50.860;19.226;2023-02-13T00:19:04;100537.69;;;3.75;84.29
58018;BME280;43810;50.860;19.226;2023-02-13T00:21:30;100535.28;;;3.74;84.12
58018;BME280;43810;50.860;19.226;2023-02-13T00:23:56;100549.00;;;3.76;84.22
58018;BME280;43810;50.860;19.226;2023-02-13T00:26:22;100547.25;;;3.81;84.21
58018;BME280;43810;50.860;19.226;2023-02-13T00:28:48;100540.00;;;3.88;84.04
58018;BME280;43810;50.860;19.226;2023-02-13T00:31:16;100540.50;;;3.85;83.95
58018;BME280;43810;50.860;19.226;2023-02-13T00:33:42;100539.38;;;3.81;84.03
58018;BME280;43810;50.860;19.226;2023-02-13T00:36:20;100527.34;;;3.85;84.01
58018;BME280;43810;50.860;19.226;2023-02-13T00:38:47;100534.09;;;3.81;84.34
58018;BME280;43810;50.860;19.226;2023-02-13T00:41:14;100537.94;;;3.74;84.79
58018;BME280;43810;50.860;19.226;2023-02-13T00:43:42;100534.97;;;3.70;84.99
58018;BME280;43810;50.860;19.226;2023-02-13T00:46:08;100538.03;;;3.67;85.23
58018;BME280;43810;50.860;19.226;2023-02-13T00:48:35;100540.69;;;3.67;85.54
58018;BME280;43810;50.860;19.226;2023-02-13T00:51:01;100531.31;;;3.71;85.46
58018;BME280;43810;50.860;19.226;2023-02-13T00:53:27;100540.31;;;3.75;85.09
58018;BME280;43810;50.860;19.226;2023-02-13T00:55:53;100526.38;;;3.75;85.07
58018;BME280;43810;50.860;19.226;2023-02-13T00:58:20;100525.06;;;3.61;85.82
58018;BME280;43810;50.860;19.226;2023-02-13T01:00:46;100526.09;;;3.60;85.98
58018;BME280;43810;50.860;19.226;2023-02-13T01:03:13;100529.66;;;3.53;86.17
58018;BME280;43810;50.860;19.226;2023-02-13T01:05:39;100524.94;;;3.55;86.50
58018;BME280;43810;50.860;19.226;2023-02-13T01:08:05;100530.31;;;3.61;86.47
58018;BME280;43810;50.860;19.226;2023-02-13T01:10:31;100525.63;;;3.63;86.20
58018;BME280;43810;50.860;19.226;2023-02-13T01:12:57;100524.09;;;3.67;86.42
58018;BME280;43810;50.860;19.226;2023-02-13T01:15:23;100525.13;;;3.66;86.11
58018;BME280;43810;50.860;19.226;2023-02-13T01:17:52;100514.25;;;3.74;86.13
58018;BME280;43810;50.860;19.226;2023-02-13T01:20:19;100509.47;;;3.71;86.30
58018;BME280;43810;50.860;19.226;2023-02-13T01:22:45;100513.81;;;3.77;86.39
58018;BME280;43810;50.860;19.226;2023-02-13T01:25:11;100511.56;;;3.85;86.12
58018;BME280;43810;50.860;19.226;2023-02-13T01:27:37;100519.88;;;3.94;86.33
58018;BME280;43810;50.860;19.226;2023-02-13T01:30:06;100508.56;;;3.94;86.13
58018;BME280;43810;50.860;19.226;2023-02-13T01:32:36;100501.47;;;3.94;86.63
58018;BME280;43810;50.860;19.226;2023-02-13T01:35:03;100505.22;;;3.98;86.29
58018;BME280;43810;50.860;19.226;2023-02-13T01:37:29;100497.63;;;4.02;86.26
58018;BME280;43810;50.860;19.226;2023-02-13T01:39:54;100498.44;;;4.02;86.14
58018;BME280;43810;50.860;19.226;2023-02-13T01:42:25;100497.88;;;4.00;86.71
58018;BME280;43810;50.860;19.226;2023-02-13T01:44:56;100499.97;;;3.98;86.65
58018;BME280;43810;50.860;19.226;2023-02-13T01:47:44;100504.19;;;3.99;86.82
58018;BME280;43810;50.860;19.226;2023-02-13T01:52:44;100490.53;;;4.02;87.17
58018;BME280;43810;50.860;19.226;2023-02-13T01:55:12;100487.91;;;4.02;87.00
58018;BME280;43810;50.860;19.226;2023-02-13T01:57:39;100489.97;;;4.00;87.46
58018;BME280;43810;50.860;19.226;2023-02-13T02:00:13;100490.78;;;4.01;87.57
58018;BME280;43810;50.860;19.226;2023-02-13T02:02:47;100490.78;;;4.01;87.83
58018;BME280;43810;50.860;19.226;2023-02-13T02:05:15;100487.28;;;3.95;87.86
58018;BME280;43810;50.860;19.226;2023-02-13T02:07:43;100481.22;;;3.95;88.25
58018;BME280;43810;50.860;19.226;2023-02-13T02:10:17;100482.59;;;3.97;88.14
58018;BME280;43810;50.860;19.226;2023-02-13T02:15:21;100489.44;;;3.98;88.18
58018;BME280;43810;50.860;19.226;2023-02-13T02:17:47;100485.28;;;4.02;88.10
58018;BME280;43810;50.860;19.226;2023-02-13T02:37:43;100487.84;;;3.97;88.39
58018;BME280;43810;50.860;19.226;2023-02-13T02:40:24;100479.72;;;3.99;88.55
58018;BME280;43810;50.860;19.226;2023-02-13T02:46:36;100487.53;;;4.10;88.61
58018;BME280;43810;50.860;19.226;2023-02-13T02:49:06;100485.94;;;4.09;88.48
58018;BME280;43810;50.860;19.226;2023-02-13T02:54:47;100488.16;;;4.17;87.70
58018;BME280;43810;50.860;19.226;2023-02-13T02:57:31;100496.53;;;4.14;88.07
58018;BME280;43810;50.860;19.226;2023-02-13T03:00:18;100496.47;;;4.09;87.95
58018;BME280;43810;50.860;19.226;2023-02-13T03:03:30;100493.03;;;4.09;88.36
58018;BME280;43810;50.860;19.226;2023-02-13T03:08:53;100496.38;;;4.04;88.76
58018;BME280;43810;50.860;19.226;2023-02-13T03:11:41;100490.41;;;4.09;88.64
58018;BME280;43810;50.860;19.226;2023-02-13T03:14:27;100483.31;;;4.09;89.02
58018;BME280;43810;50.860;19.226;2023-02-13T03:16:55;100494.94;;;4.13;88.76
58018;BME280;43810;50.860;19.226;2023-02-13T03:19:51;100498.06;;;4.10;88.59
58018;BME280;43810;50.860;19.226;2023-02-13T03:22:44;100508.59;;;4.10;88.95
58018;BME280;43810;50.860;19.226;2023-02-13T03:28:09;100506.31;;;4.02;89.29
58018;BME280;43810;50.860;19.226;2023-02-13T03:31:11;100503.00;;;4.07;89.64
58018;BME280;43810;50.860;19.226;2023-02-13T03:34:14;100503.00;;;4.07;89.58
58018;BME280;43810;50.860;19.226;2023-02-13T03:36:42;100507.00;;;4.09;89.69
58018;BME280;43810;50.860;19.226;2023-02-13T03:45:21;100494.13;;;4.13;89.45
58018;BME280;43810;50.860;19.226;2023-02-13T03:48:08;100491.03;;;4.16;88.92
58018;BME280;43810;50.860;19.226;2023-02-13T03:50:57;100492.06;;;4.15;89.17
58018;BME280;43810;50.860;19.226;2023-02-13T03:53:26;100497.81;;;4.12;89.17
58018;BME280;43810;50.860;19.226;2023-02-13T03:55:54;100498.06;;;4.10;89.12
58018;BME280;43810;50.860;19.226;2023-02-13T03:58:43;100493.34;;;4.12;89.33
58018;BME280;43810;50.860;19.226;2023-02-13T04:01:31;100502.81;;;4.13;89.45
58018;BME280;43810;50.860;19.226;2023-02-13T04:04:12;100502.59;;;4.15;89.54
58018;BME280;43810;50.860;19.226;2023-02-13T04:06:58;100503.63;;;4.14;89.59
58018;BME280;43810;50.860;19.226;2023-02-13T04:09:26;100494.47;;;4.16;89.54
58018;BME280;43810;50.860;19.226;2023-02-13T04:12:08;100491.03;;;4.16;89.24
58018;BME280;43810;50.860;19.226;2023-02-13T04:17:23;100488.50;;;4.21;89.06
58018;BME280;43810;50.860;19.226;2023-02-13T04:19:50;100498.53;;;4.24;88.74
58018;BME280;43810;50.860;19.226;2023-02-13T04:22:17;100507.94;;;4.20;88.82
58018;BME280;43810;50.860;19.226;2023-02-13T04:24:44;100502.53;;;4.10;89.44
58018;BME280;43810;50.860;19.226;2023-02-13T04:27:13;100496.94;;;4.06;89.95
58018;BME280;43810;50.860;19.226;2023-02-13T04:29:40;100501.63;;;4.04;89.83
58018;BME280;43810;50.860;19.226;2023-02-13T04:32:06;100497.72;;;4.07;90.01
58018;BME280;43810;50.860;19.226;2023-02-13T04:34:32;100502.19;;;4.06;89.65
58018;BME280;43810;50.860;19.226;2023-02-13T04:36:57;100498.88;;;4.11;89.67
58018;BME280;43810;50.860;19.226;2023-02-13T04:39:23;100499.00;;;4.04;89.70
58018;BME280;43810;50.860;19.226;2023-02-13T04:41:49;100496.13;;;4.06;89.84
58018;BME280;43810;50.860;19.226;2023-02-13T04:44:15;100500.69;;;4.10;90.07
58018;BME280;43810;50.860;19.226;2023-02-13T04:46:40;100496.06;;;4.17;89.35
58018;BME280;43810;50.860;19.226;2023-02-13T04:49:07;100495.66;;;4.25;88.98
58018;BME280;43810;50.860;19.226;2023-02-13T04:51:32;100486.16;;;4.24;88.72
58018;BME280;43810;50.860;19.226;2023-02-13T04:53:58;100497.19;;;4.21;89.34
58018;BME280;43810;50.860;19.226;2023-02-13T04:56:24;100490.09;;;4.22;88.65
58018;BME280;43810;50.860;19.226;2023-02-13T04:58:50;100497.72;;;4.23;88.56
58018;BME280;43810;50.860;19.226;2023-02-13T05:01:16;100500.63;;;4.22;88.50
58018;BME280;43810;50.860;19.226;2023-02-13T05:03:42;100501.78;;;4.14;89.12
58018;BME280;43810;50.860;19.226;2023-02-13T05:06:08;100512.88;;;4.16;89.16
58018;BME280;43810;50.860;19.226;2023-02-13T05:08:34;100514.94;;;4.14;88.56
58018;BME280;43810;50.860;19.226;2023-02-13T05:11:00;100499.34;;;4.08;89.15
58018;BME280;43810;50.860;19.226;2023-02-13T05:13:26;100502.91;;;4.02;88.98
58018;BME280;43810;50.860;19.226;2023-02-13T05:15:51;100506.72;;;3.94;89.36
58018;BME280;43810;50.860;19.226;2023-02-13T05:18:18;100507.69;;;3.88;89.58
58018;BME280;43810;50.860;19.226;2023-02-13T05:20:44;100506.31;;;3.85;89.78
58018;BME280;43810;50.860;19.226;2023-02-13T05:23:13;100501.44;;;3.77;89.89
58018;BME280;43810;50.860;19.226;2023-02-13T05:25:49;100500.09;;;3.75;89.90
58018;BME280;43810;50.860;19.226;2023-02-13T05:28:15;100505.00;;;3.71;89.72
58018;BME280;43810;50.860;19.226;2023-02-13T05:31:00;100503.56;;;3.64;89.65
58018;BME280;43810;50.860;19.226;2023-02-13T05:33:26;100496.59;;;3.58;89.45
58018;BME280;43810;50.860;19.226;2023-02-13T05:35:52;100501.63;;;3.59;89.70
58018;BME280;43810;50.860;19.226;2023-02-13T05:38:18;100502.09;;;3.56;89.65
58018;BME280;43810;50.860;19.226;2023-02-13T05:40:43;100496.03;;;3.55;89.36
58018;BME280;43810;50.860;19.226;2023-02-13T05:43:09;100492.88;;;3.53;89.68
58018;BME280;43810;50.860;19.226;2023-02-13T05:45:35;100492.50;;;3.62;89.26
58018;BME280;43810;50.860;19.226;2023-02-13T05:48:01;100491.91;;;3.60;89.12
58018;BME280;43810;50.860;19.226;2023-02-13T05:50:27;100491.91;;;3.60;89.29
58018;BME280;43810;50.860;19.226;2023-02-13T05:52:52;100487.63;;;3.53;89.33
58018;BME280;43810;50.860;19.226;2023-02-13T05:55:18;100496.19;;;3.49;89.31
58018;BME280;43810;50.860;19.226;2023-02-13T05:57:44;100482.16;;;3.43;89.47
58018;BME280;43810;50.860;19.226;2023-02-13T06:00:10;100496.09;;;3.44;89.76
58018;BME280;43810;50.860;19.226;2023-02-13T06:02:36;100495.41;;;3.48;88.90
58018;BME280;43810;50.860;19.226;2023-02-13T06:05:02;100501.00;;;3.52;89.01
58018;BME280;43810;50.860;19.226;2023-02-13T06:07:28;100499.97;;;3.53;89.04
58018;BME280;43810;50.860;19.226;2023-02-13T06:09:53;100497.78;;;3.50;89.19
58018;BME280;43810;50.860;19.226;2023-02-13T06:12:19;100512.72;;;3.61;89.02
58018;BME280;43810;50.860;19.226;2023-02-13T06:14:45;100501.16;;;3.62;88.75
58018;BME280;43810;50.860;19.226;2023-02-13T06:17:11;100505.25;;;3.70;88.51
58018;BME280;43810;50.860;19.226;2023-02-13T06:19:37;100503.88;;;3.67;88.59
58018;BME280;43810;50.860;19.226;2023-02-13T06:22:02;100511.06;;;3.72;88.85
58018;BME280;43810;50.860;19.226;2023-02-13T06:24:28;100515.06;;;3.74;88.53
58018;BME280;43810;50.860;19.226;2023-02-13T06:26:54;100512.19;;;3.76;88.60
58018;BME280;43810;50.860;19.226;2023-02-13T06:29:20;100506.44;;;3.79;88.86
58018;BME280;43810;50.860;19.226;2023-02-13T06:31:46;100512.03;;;3.82;88.59
58018;BME280;43810;50.860;19.226;2023-02-13T06:34:11;100513.97;;;3.87;88.41
58018;BME280;43810;50.860;19.226;2023-02-13T06:36:37;100500.91;;;3.92;88.40
58018;BME280;43810;50.860;19.226;2023-02-13T06:39:03;100496.66;;;3.91;88.55
58018;BME280;43810;50.860;19.226;2023-02-13T06:41:29;100497.72;;;3.90;88.72
58018;BME280;43810;50.860;19.226;2023-02-13T06:43:55;100511.53;;;3.97;88.30
58018;BME280;43810;50.860;19.226;2023-02-13T06:46:21;100511.41;;;3.92;88.31
58018;BME280;43810;50.860;19.226;2023-02-13T06:48:46;100516.59;;;3.87;88.09
58018;BME280;43810;50.860;19.226;2023-02-13T06:51:12;100524.31;;;3.77;88.33
58018;BME280;43810;50.860;19.226;2023-02-13T06:53:38;100525.25;;;3.71;88.56
58018;BME280;43810;50.860;19.226;2023-02-13T06:56:04;100513.28;;;3.63;88.64
58018;BME280;43810;50.860;19.226;2023-02-13T06:58:31;100512.16;;;3.59;88.75
58018;BME280;43810;50.860;19.226;2023-02-13T07:00:58;100517.63;;;3.58;88.93
58018;BME280;43810;50.860;19.226;2023-02-13T07:03:24;100521.41;;;3.62;88.84
58018;BME280;43810;50.860;19.226;2023-02-13T07:05:50;100516.72;;;3.64;89.01
58018;BME280;43810;50.860;19.226;2023-02-13T07:08:17;100520.41;;;3.79;89.14
58018;BME280;43810;50.860;19.226;2023-02-13T07:10:43;100518.28;;;3.93;89.15
58018;BME280;43810;50.860;19.226;2023-02-13T07:13:09;100527.88;;;3.99;89.10
58018;BME280;43810;50.860;19.226;2023-02-13T07:15:36;100518.47;;;4.20;89.04
58018;BME280;43810;50.860;19.226;2023-02-13T07:18:02;100504.50;;;4.36;89.22
58018;BME280;43810;50.860;19.226;2023-02-13T07:20:29;100504.50;;;4.53;89.03
58018;BME280;43810;50.860;19.226;2023-02-13T07:22:58;100509.44;;;4.66;89.01
58018;BME280;43810;50.860;19.226;2023-02-13T07:25:25;100516.44;;;4.77;88.98
58018;BME280;43810;50.860;19.226;2023-02-13T07:27:50;100508.59;;;4.82;88.94
58018;BME280;43810;50.860;19.226;2023-02-13T07:30:16;100511.22;;;4.82;88.38
58018;BME280;43810;50.860;19.226;2023-02-13T07:32:42;100511.78;;;4.84;88.41
58018;BME280;43810;50.860;19.226;2023-02-13T07:35:08;100510.81;;;4.90;88.03
58018;BME280;43810;50.860;19.226;2023-02-13T07:37:34;100510.88;;;4.95;88.14
58018;BME280;43810;50.860;19.226;2023-02-13T07:40:00;100511.00;;;5.06;88.61
58018;BME280;43810;50.860;19.226;2023-02-13T07:42:26;100511.19;;;5.21;87.67
58018;BME280;43810;50.860;19.226;2023-02-13T07:44:52;100502.31;;;5.27;87.51
58018;BME280;43810;50.860;19.226;2023-02-13T07:47:17;100506.84;;;5.31;86.92
58018;BME280;43810;50.860;19.226;2023-02-13T07:49:43;100499.75;;;5.32;86.84
58018;BME280;43810;50.860;19.226;2023-02-13T07:52:09;100498.16;;;5.31;86.76
58018;BME280;43810;50.860;19.226;2023-02-13T07:54:35;100501.25;;;5.28;86.48
58018;BME280;43810;50.860;19.226;2023-02-13T07:57:03;100497.00;;;5.22;86.80
58018;BME280;43810;50.860;19.226;2023-02-13T07:59:29;100503.91;;;5.28;87.19
58018;BME280;43810;50.860;19.226;2023-02-13T08:01:54;100499.13;;;5.25;87.22
58018;BME280;43810;50.860;19.226;2023-02-13T08:04:20;100504.56;;;5.18;86.97
58018;BME280;43810;50.860;19.226;2023-02-13T08:06:46;100499.94;;;5.25;87.07
58018;BME280;43810;50.860;19.226;2023-02-13T08:09:19;100499.91;;;5.47;86.62
58018;BME280;43810;50.860;19.226;2023-02-13T08:12:06;100499.56;;;5.65;86.34
58018;BME280;43810;50.860;19.226;2023-02-13T08:14:32;100499.66;;;5.76;86.23
58018;BME280;43810;50.860;19.226;2023-02-13T08:16:59;100496.84;;;5.82;85.96
58018;BME280;43810;50.860;19.226;2023-02-13T08:19:26;100494.00;;;5.89;84.83
58018;BME280;43810;50.860;19.226;2023-02-13T08:21:52;100486.63;;;5.91;85.43
58018;BME280;43810;50.860;19.226;2023-02-13T08:24:19;100485.59;;;5.92;84.49
58018;BME280;43810;50.860;19.226;2023-02-13T08:26:44;100486.13;;;5.94;84.49
58018;BME280;43810;50.860;19.226;2023-02-13T08:29:10;100485.66;;;6.02;84.61
58018;BME280;43810;50.860;19.226;2023-02-13T08:31:36;100495.75;;;6.10;84.16
58018;BME280;43810;50.860;19.226;2023-02-13T08:34:03;100492.63;;;6.13;84.03
58018;BME280;43810;50.860;19.226;2023-02-13T08:36:29;100487.09;;;6.15;83.30
58018;BME280;43810;50.860;19.226;2023-02-13T08:38:55;100490.47;;;6.10;83.95
58018;BME280;43810;50.860;19.226;2023-02-13T08:41:21;100490.47;;;6.10;83.63
58018;BME280;43810;50.860;19.226;2023-02-13T08:43:48;100501.59;;;6.12;83.25
58018;BME280;43810;50.860;19.226;2023-02-13T08:46:15;100498.06;;;6.01;83.21
58018;BME280;43810;50.860;19.226;2023-02-13T08:48:42;100494.78;;;5.89;84.50
58018;BME280;43810;50.860;19.226;2023-02-13T08:51:09;100485.09;;;5.95;84.49
58018;BME280;43810;50.860;19.226;2023-02-13T08:53:37;100486.69;;;5.96;85.13
58018;BME280;43810;50.860;19.226;2023-02-13T08:56:03;100493.09;;;6.05;85.48
58018;BME280;43810;50.860;19.226;2023-02-13T08:58:29;100486.00;;;6.10;84.85
58018;BME280;43810;50.860;19.226;2023-02-13T09:00:56;100489.50;;;6.21;85.29
58018;BME280;43810;50.860;19.226;2023-02-13T09:03:22;100487.16;;;6.25;84.53
58018;BME280;43810;50.860;19.226;2023-02-13T09:05:48;100479.56;;;6.33;84.91
58018;BME280;43810;50.860;19.226;2023-02-13T09:08:14;100482.38;;;6.54;84.89
58018;BME280;43810;50.860;19.226;2023-02-13T09:10:41;100487.16;;;6.62;84.14
58018;BME280;43810;50.860;19.226;2023-02-13T09:13:11;100484.53;;;6.67;83.42
58018;BME280;43810;50.860;19.226;2023-02-13T09:15:38;100490.38;;;6.69;83.69
58018;BME280;43810;50.860;19.226;2023-02-13T09:18:07;100485.06;;;6.64;82.98
58018;BME280;43810;50.860;19.226;2023-02-13T09:20:33;100491.69;;;6.71;83.97
58018;BME280;43810;50.860;19.226;2023-02-13T09:22:59;100489.47;;;6.95;83.38
58018;BME280;43810;50.860;19.226;2023-02-13T09:25:25;100479.50;;;7.07;82.33
58018;BME280;43810;50.860;19.226;2023-02-13T09:27:51;100487.94;;;6.99;81.45
58018;BME280;43810;50.860;19.226;2023-02-13T09:30:16;100475.72;;;6.93;82.23
58018;BME280;43810;50.860;19.226;2023-02-13T09:32:49;100479.97;;;6.94;82.69
58018;BME280;43810;50.860;19.226;2023-02-13T09:35:16;100474.13;;;6.92;82.56
58018;BME280;43810;50.860;19.226;2023-02-13T09:37:42;100481.44;;;6.80;81.98
58018;BME280;43810;50.860;19.226;2023-02-13T09:40:34;100484.72;;;6.50;82.61
58018;BME280;43810;50.860;19.226;2023-02-13T09:43:29;100485.09;;;6.32;83.51
58018;BME280;43810;50.860;19.226;2023-02-13T09:46:21;100488.38;;;6.12;84.74
58018;BME280;43810;50.860;19.226;2023-02-13T09:48:51;100478.88;;;6.11;85.18
58018;BME280;43810;50.860;19.226;2023-02-13T09:51:19;100481.94;;;5.98;85.27
58018;BME280;43810;50.860;19.226;2023-02-13T09:53:59;100486.94;;;5.94;85.60
58018;BME280;43810;50.860;19.226;2023-02-13T09:57:27;100476.56;;;5.88;85.92
58018;BME280;43810;50.860;19.226;2023-02-13T10:05:15;100488.69;;;5.84;87.16
58018;BME280;43810;50.860;19.226;2023-02-13T10:07:52;100481.81;;;5.83;86.82
58018;BME280;43810;50.860;19.226;2023-02-13T10:16:18;100469.78;;;5.97;87.56
58018;BME280;43810;50.860;19.226;2023-02-13T10:18:52;100458.53;;;6.06;86.80
58018;BME280;43810;50.860;19.226;2023-02-13T10:21:22;100465.06;;;5.99;86.79
58018;BME280;43810;50.860;19.226;2023-02-13T10:24:03;100475.28;;;5.90;86.61
58018;BME280;43810;50.860;19.226;2023-02-13T10:26:34;100459.31;;;5.75;86.62
58018;BME280;43810;50.860;19.226;2023-02-13T10:29:41;100452.59;;;5.62;86.55
58018;BME280;43810;50.860;19.226;2023-02-13T10:32:55;100453.75;;;5.71;87.50
58018;BME280;43810;50.860;19.226;2023-02-13T10:38:16;100456.84;;;6.32;86.31
58018;BME280;43810;50.860;19.226;2023-02-13T10:41:17;100453.81;;;6.51;85.28
58018;BME280;43810;50.860;19.226;2023-02-13T10:43:43;100453.88;;;6.61;83.68
58018;BME280;43810;50.860;19.226;2023-02-13T10:46:26;100442.81;;;6.64;84.00
58018;BME280;43810;50.860;19.226;2023-02-13T11:03:01;100431.78;;;6.82;84.94
58018;BME280;43810;50.860;19.226;2023-02-13T11:05:38;100427.84;;;6.85;84.40
58018;BME280;43810;50.860;19.226;2023-02-13T11:08:16;100424.91;;;6.81;83.37
58018;BME280;43810;50.860;19.226;2023-02-13T11:10:43;100414.59;;;6.79;83.94
58018;BME280;43810;50.860;19.226;2023-02-13T11:13:18;100418.28;;;6.78;84.73
58018;BME280;43810;50.860;19.226;2023-02-13T11:16:04;100412.78;;;6.85;84.00
58018;BME280;43810;50.860;19.226;2023-02-13T11:18:39;100409.84;;;6.76;84.32
58018;BME280;43810;50.860;19.226;2023-02-13T11:21:09;100414.63;;;6.85;84.42
58018;BME280;43810;50.860;19.226;2023-02-13T11:23:44;100410.44;;;6.89;84.26
58018;BME280;43810;50.860;19.226;2023-02-13T11:28:55;100413.38;;;6.92;83.78
58018;BME280;43810;50.860;19.226;2023-02-13T11:31:23;100409.66;;;6.93;83.50
58018;BME280;43810;50.860;19.226;2023-02-13T11:33:49;100403.88;;;6.96;83.91
58018;BME280;43810;50.860;19.226;2023-02-13T11:36:24;100416.53;;;6.94;84.06
58018;BME280;43810;50.860;19.226;2023-02-13T11:39:17;100418.03;;;6.75;84.47
58018;BME280;43810;50.860;19.226;2023-02-13T11:41:45;100418.41;;;6.46;85.26
58018;BME280;43810;50.860;19.226;2023-02-13T11:44:31;100421.97;;;6.25;86.11
58018;BME280;43810;50.860;19.226;2023-02-13T11:47:00;100415.53;;;6.06;87.01
58018;BME280;43810;50.860;19.226;2023-02-13T11:49:30;100424.69;;;5.98;87.39
58018;BME280;43810;50.860;19.226;2023-02-13T11:52:00;100428.53;;;5.86;87.43
58018;BME280;43810;50.860;19.226;2023-02-13T11:54:35;100434.59;;;5.81;88.35
58018;BME280;43810;50.860;19.226;2023-02-13T11:57:20;100437.63;;;5.68;88.29
58018;BME280;43810;50.860;19.226;2023-02-13T11:59:48;100437.56;;;5.63;88.74
58018;BME280;43810;50.860;19.226;2023-02-13T12:02:20;100446.34;;;5.68;88.85
58018;BME280;43810;50.860;19.226;2023-02-13T12:04:51;100445.69;;;5.56;88.93
58018;BME280;43810;50.860;19.226;2023-02-13T12:09:44;100432.41;;;5.46;88.95
58018;BME280;43810;50.860;19.226;2023-02-13T12:12:27;100436.78;;;5.35;88.72
58018;BME280;43810;50.860;19.226;2023-02-13T12:14:55;100444.97;;;5.39;89.76
58018;BME280;43810;50.860;19.226;2023-02-13T12:17:22;100434.97;;;5.36;89.35
58018;BME280;43810;50.860;19.226;2023-02-13T12:19:51;100429.13;;;5.34;88.98
58018;BME280;43810;50.860;19.226;2023-02-13T12:22:30;100419.56;;;5.28;89.59
58018;BME280;43810;50.860;19.226;2023-02-13T12:38:31;100415.75;;;5.41;89.41
58018;BME280;43810;50.860;19.226;2023-02-13T13:21:18;100404.06;;;4.61;87.35
58018;BME280;43810;50.860;19.226;2023-02-13T13:24:01;100398.22;;;4.59;87.30
58018;BME280;43810;50.860;19.226;2023-02-13T13:26:45;100394.00;;;4.58;87.27
58018;BME280;43810;50.860;19.226;2023-02-13T13:29:52;100411.41;;;4.59;87.77
58018;BME280;43810;50.860;19.226;2023-02-13T13:32:15;100410.31;;;4.55;86.73
58018;BME280;43810;50.860;19.226;2023-02-13T13:34:42;100404.72;;;4.51;86.59
58018;BME280;43810;50.860;19.226;2023-02-13T13:48:30;100401.97;;;4.41;85.83
58018;BME280;43810;50.860;19.226;2023-02-13T13:50:59;100406.66;;;4.39;85.76
58018;BME280;43810;50.860;19.226;2023-02-13T13:53:25;100404.34;;;4.43;85.56
58018;BME280;43810;50.860;19.226;2023-02-13T13:58:33;100400.72;;;4.49;85.77
58018;BME280;43810;50.860;19.226;2023-02-13T14:01:27;100395.31;;;4.55;85.42
58018;BME280;43810;50.860;19.226;2023-02-13T14:03:55;100411.41;;;4.59;85.15
58018;BME280;43810;50.860;19.226;2023-02-13T14:06:24;100398.56;;;4.62;85.04
58018;BME280;43810;50.860;19.226;2023-02-13T14:09:02;100392.72;;;4.60;84.70
58018;BME280;43810;50.860;19.226;2023-02-13T14:11:54;100405.84;;;4.55;85.07
58018;BME280;43810;50.860;19.226;2023-02-13T14:17:03;100390.84;;;4.56;84.95
58018;BME280;43810;50.860;19.226;2023-02-13T14:24:52;100394.13;;;4.46;84.19
58018;BME280;43810;50.860;19.226;2023-02-13T14:27:36;100387.75;;;4.42;84.50
58018;BME280;43810;50.860;19.226;2023-02-13T14:30:06;100378.50;;;4.40;84.68
58018;BME280;43810;50.860;19.226;2023-02-13T14:32:48;100380.59;;;4.38;84.71
58018;BME280;43810;50.860;19.226;2023-02-13T14:35:27;100379.06;;;4.42;84.72
58018;BME280;43810;50.860;19.226;2023-02-13T14:38:02;100374.84;;;4.41;84.48
58018;BME280;43810;50.860;19.226;2023-02-13T14:45:53;100376.44;;;4.42;84.67
58018;BME280;43810;50.860;19.226;2023-02-13T14:48:21;100370.44;;;4.46;84.80
58018;BME280;43810;50.860;19.226;2023-02-13T14:50:51;100362.81;;;4.45;84.33
58018;BME280;43810;50.860;19.226;2023-02-13T14:53:24;100360.09;;;4.40;84.35
58018;BME280;43810;50.860;19.226;2023-02-13T14:56:13;100362.50;;;4.41;84.47
58018;BME280;43810;50.860;19.226;2023-02-13T14:58:49;100358.25;;;4.40;84.71
58018;BME280;43810;50.860;19.226;2023-02-13T15:01:29;100360.09;;;4.40;84.26
58018;BME280;43810;50.860;19.226;2023-02-13T15:04:06;100355.31;;;4.37;84.73
58018;BME280;43810;50.860;19.226;2023-02-13T15:06:39;100365.28;;;4.35;84.50
58018;BME280;43810;50.860;19.226;2023-02-13T15:09:19;100360.75;;;4.30;84.93
58018;BME280;43810;50.860;19.226;2023-02-13T15:11:46;100365.34;;;4.40;84.96
58018;BME280;43810;50.860;19.226;2023-02-13T15:17:18;100354.72;;;4.30;85.39
58018;BME280;43810;50.860;19.226;2023-02-13T15:19:48;100363.41;;;4.30;85.38
58018;BME280;43810;50.860;19.226;2023-02-13T15:22:26;100364.44;;;4.29;85.24
58018;BME280;43810;50.860;19.226;2023-02-13T15:24:54;100365.16;;;4.24;85.71
58018;BME280;43810;50.860;19.226;2023-02-13T15:27:31;100346.81;;;4.30;85.52
58018;BME280;43810;50.860;19.226;2023-02-13T15:30:16;100351.03;;;4.31;85.35
58018;BME280;43810;50.860;19.226;2023-02-13T15:32:43;100347.84;;;4.28;85.14
58018;BME280;43810;50.860;19.226;2023-02-13T15:37:48;100346.25;;;4.27;84.68
58018;BME280;43810;50.860;19.226;2023-02-13T15:40:36;100342.03;;;4.26;84.73
58018;BME280;43810;50.860;19.226;2023-02-13T15:43:01;100340.66;;;4.24;84.82
58018;BME280;43810;50.860;19.226;2023-02-13T15:45:28;100347.78;;;4.23;84.76
58018;BME280;43810;50.860;19.226;2023-02-13T15:47:55;100352.00;;;4.24;84.60
58018;BME280;43810;50.860;19.226;2023-02-13T15:50:31;100352.00;;;4.24;84.77
58018;BME280;43810;50.860;19.226;2023-02-13T15:52:59;100349.38;;;4.24;84.54
58018;BME280;43810;50.860;19.226;2023-02-13T15:55:30;100349.63;;;4.23;84.98